sensor_id;sensor_type;location;lat;lon;timestamp;P1;durP1;ratioP1;P2;durP2;ratioP2
7985;SDS011;4038;42.612;23.066;2022-11-23T00:00:17;28.20;;;25.73;;
7985;SDS011;4038;42.612;23.066;2022-11-23T00:02:42;28.57;;;25.70;;
7985;SDS011;4038;42.612;23.066;2022-11-23T00:05:08;27.70;;;25.17;;
7985;SDS011;4038;42.612;23.066;2022-11-23T00:07:33;29.40;;;26.40;;
7985;SDS011;4038;42.612;23.066;2022-11-23T00:09:59;28.53;;;26.13;;
7985;SDS011;4038;42.612;23.066;2022-11-23T00:12:24;26.13;;;24.13;;
7985;SDS011;4038;42.612;23.066;2022-11-23T00:14:49;25.47;;;23.40;;
7985;SDS011;4038;42.612;23.066;2022-11-23T00:17:15;26.23;;;24.13;;
7985;SDS011;4038;42.612;23.066;2022-11-23T00:19:40;26.80;;;24.40;;
7985;SDS011;4038;42.612;23.066;2022-11-23T00:22:05;26.73;;;24.47;;
7985;SDS011;4038;42.612;23.066;2022-11-23T00:24:31;24.80;;;22.70;;
7985;SDS011;4038;42.612;23.066;2022-11-23T00:26:56;26.03;;;24.10;;
7985;SDS011;4038;42.612;23.066;2022-11-23T00:29:21;27.23;;;24.93;;
7985;SDS011;4038;42.612;23.066;2022-11-23T00:31:47;27.63;;;25.50;;
7985;SDS011;4038;42.612;23.066;2022-11-23T00:34:12;27.47;;;25.30;;
7985;SDS011;4038;42.612;23.066;2022-11-23T00:36:37;27.73;;;25.43;;
7985;SDS011;4038;42.612;23.066;2022-11-23T00:39:03;27.60;;;25.40;;
7985;SDS011;4038;42.612;23.066;2022-11-23T00:41:28;26.00;;;23.83;;
7985;SDS011;4038;42.612;23.066;2022-11-23T00:43:54;27.27;;;25.03;;
7985;SDS011;4038;42.612;23.066;2022-11-23T00:46:20;26.93;;;24.53;;
7985;SDS011;4038;42.612;23.066;2022-11-23T00:48:51;27.20;;;25.00;;
7985;SDS011;4038;42.612;23.066;2022-11-23T00:51:21;27.03;;;24.93;;
7985;SDS011;4038;42.612;23.066;2022-11-23T00:53:48;27.97;;;25.73;;
7985;SDS011;4038;42.612;23.066;2022-11-23T00:56:14;26.87;;;24.90;;
7985;SDS011;4038;42.612;23.066;2022-11-23T00:58:41;25.60;;;23.80;;
7985;SDS011;4038;42.612;23.066;2022-11-23T01:03:34;25.40;;;23.50;;
7985;SDS011;4038;42.612;23.066;2022-11-23T01:06:05;23.83;;;22.13;;
7985;SDS011;4038;42.612;23.066;2022-11-23T01:08:35;26.20;;;24.23;;
7985;SDS011;4038;42.612;23.066;2022-11-23T01:11:02;25.87;;;23.97;;
7985;SDS011;4038;42.612;23.066;2022-11-23T01:13:30;25.30;;;23.50;;
7985;SDS011;4038;42.612;23.066;2022-11-23T01:15:56;24.90;;;23.20;;
7985;SDS011;4038;42.612;23.066;2022-11-23T01:18:21;23.47;;;21.77;;
7985;SDS011;4038;42.612;23.066;2022-11-23T01:20:48;24.23;;;22.60;;
7985;SDS011;4038;42.612;23.066;2022-11-23T01:23:13;22.93;;;21.33;;
7985;SDS011;4038;42.612;23.066;2022-11-23T01:25:38;24.60;;;22.90;;
7985;SDS011;4038;42.612;23.066;2022-11-23T01:28:04;24.67;;;22.87;;
7985;SDS011;4038;42.612;23.066;2022-11-23T01:30:30;23.33;;;21.67;;
7985;SDS011;4038;42.612;23.066;2022-11-23T01:32:55;24.10;;;22.30;;
7985;SDS011;4038;42.612;23.066;2022-11-23T01:35:20;24.53;;;22.83;;
7985;SDS011;4038;42.612;23.066;2022-11-23T01:37:46;25.40;;;23.53;;
7985;SDS011;4038;42.612;23.066;2022-11-23T01:40:11;30.63;;;27.50;;
7985;SDS011;4038;42.612;23.066;2022-11-23T01:45:41;26.73;;;24.60;;
7985;SDS011;4038;42.612;23.066;2022-11-23T01:48:20;27.37;;;25.17;;
7985;SDS011;4038;42.612;23.066;2022-11-23T01:50:51;28.57;;;26.10;;
7985;SDS011;4038;42.612;23.066;2022-11-23T01:53:17;27.87;;;25.30;;
7985;SDS011;4038;42.612;23.066;2022-11-23T01:55:45;28.80;;;25.90;;
7985;SDS011;4038;42.612;23.066;2022-11-23T01:58:13;27.03;;;24.53;;
7985;SDS011;4038;42.612;23.066;2022-11-23T02:00:42;27.53;;;25.13;;
7985;SDS011;4038;42.612;23.066;2022-11-23T02:03:08;26.80;;;24.73;;
7985;SDS011;4038;42.612;23.066;2022-11-23T02:05:36;25.60;;;23.70;;
7985;SDS011;4038;42.612;23.066;2022-11-23T02:08:08;25.40;;;23.10;;
7985;SDS011;4038;42.612;23.066;2022-11-23T02:10:35;24.90;;;22.93;;
7985;SDS011;4038;42.612;23.066;2022-11-23T02:13:05;24.03;;;22.23;;
7985;SDS011;4038;42.612;23.066;2022-11-23T02:15:32;23.37;;;21.70;;
7985;SDS011;4038;42.612;23.066;2022-11-23T02:17:59;23.90;;;22.20;;
7985;SDS011;4038;42.612;23.066;2022-11-23T02:20:28;23.63;;;21.97;;
7985;SDS011;4038;42.612;23.066;2022-11-23T02:28:16;23.23;;;21.57;;
7985;SDS011;4038;42.612;23.066;2022-11-23T02:30:46;25.63;;;23.43;;
7985;SDS011;4038;42.612;23.066;2022-11-23T02:33:13;25.30;;;23.40;;
7985;SDS011;4038;42.612;23.066;2022-11-23T02:35:49;24.70;;;22.80;;
7985;SDS011;4038;42.612;23.066;2022-11-23T02:38:19;22.93;;;21.23;;
7985;SDS011;4038;42.612;23.066;2022-11-23T02:40:46;23.00;;;21.17;;
7985;SDS011;4038;42.612;23.066;2022-11-23T02:43:12;21.60;;;20.07;;
7985;SDS011;4038;42.612;23.066;2022-11-23T02:45:40;23.00;;;21.30;;
7985;SDS011;4038;42.612;23.066;2022-11-23T02:48:11;23.63;;;21.43;;
7985;SDS011;4038;42.612;23.066;2022-11-23T02:50:37;21.00;;;19.50;;
7985;SDS011;4038;42.612;23.066;2022-11-23T02:53:02;20.77;;;19.33;;
7985;SDS011;4038;42.612;23.066;2022-11-23T02:55:28;19.90;;;18.60;;
7985;SDS011;4038;42.612;23.066;2022-11-23T02:57:53;20.02;;;18.73;;
7985;SDS011;4038;42.612;23.066;2022-11-23T03:00:18;20.80;;;19.03;;
7985;SDS011;4038;42.612;23.066;2022-11-23T03:02:44;19.60;;;18.20;;
7985;SDS011;4038;42.612;23.066;2022-11-23T03:05:09;20.08;;;18.67;;
7985;SDS011;4038;42.612;23.066;2022-11-23T03:07:35;21.20;;;19.20;;
7985;SDS011;4038;42.612;23.066;2022-11-23T03:10:00;23.73;;;21.17;;
7985;SDS011;4038;42.612;23.066;2022-11-23T03:12:25;25.13;;;20.93;;
7985;SDS011;4038;42.612;23.066;2022-11-23T03:14:51;24.23;;;21.40;;
7985;SDS011;4038;42.612;23.066;2022-11-23T03:17:16;22.13;;;20.20;;
7985;SDS011;4038;42.612;23.066;2022-11-23T03:19:42;21.27;;;19.50;;
7985;SDS011;4038;42.612;23.066;2022-11-23T03:22:07;23.67;;;21.30;;
7985;SDS011;4038;42.612;23.066;2022-11-23T03:24:33;26.00;;;21.33;;
7985;SDS011;4038;42.612;23.066;2022-11-23T03:26:58;23.08;;;20.88;;
7985;SDS011;4038;42.612;23.066;2022-11-23T03:29:24;21.67;;;19.58;;
7985;SDS011;4038;42.612;23.066;2022-11-23T03:31:51;25.80;;;21.48;;
7985;SDS011;4038;42.612;23.066;2022-11-23T03:34:17;22.63;;;20.50;;
7985;SDS011;4038;42.612;23.066;2022-11-23T03:36:42;21.42;;;19.73;;
7985;SDS011;4038;42.612;23.066;2022-11-23T03:39:07;22.83;;;20.48;;
7985;SDS011;4038;42.612;23.066;2022-11-23T03:41:33;22.63;;;20.90;;
7985;SDS011;4038;42.612;23.066;2022-11-23T03:43:58;21.52;;;19.90;;
7985;SDS011;4038;42.612;23.066;2022-11-23T03:46:23;21.90;;;20.20;;
7985;SDS011;4038;42.612;23.066;2022-11-23T03:48:49;22.20;;;20.30;;
7985;SDS011;4038;42.612;23.066;2022-11-23T03:51:14;22.27;;;20.57;;
7985;SDS011;4038;42.612;23.066;2022-11-23T03:53:40;22.95;;;20.85;;
7985;SDS011;4038;42.612;23.066;2022-11-23T03:56:06;21.83;;;20.30;;
7985;SDS011;4038;42.612;23.066;2022-11-23T03:58:31;22.85;;;21.13;;
7985;SDS011;4038;42.612;23.066;2022-11-23T04:00:57;21.98;;;20.38;;
7985;SDS011;4038;42.612;23.066;2022-11-23T04:03:22;20.87;;;19.40;;
7985;SDS011;4038;42.612;23.066;2022-11-23T04:05:48;22.17;;;20.48;;
7985;SDS011;4038;42.612;23.066;2022-11-23T04:08:13;22.90;;;20.65;;
7985;SDS011;4038;42.612;23.066;2022-11-23T04:10:38;21.75;;;20.10;;
7985;SDS011;4038;42.612;23.066;2022-11-23T04:13:04;21.63;;;19.97;;
7985;SDS011;4038;42.612;23.066;2022-11-23T04:15:29;22.03;;;20.30;;
7985;SDS011;4038;42.612;23.066;2022-11-23T04:17:55;22.08;;;20.17;;
7985;SDS011;4038;42.612;23.066;2022-11-23T04:20:20;21.48;;;19.95;;
7985;SDS011;4038;42.612;23.066;2022-11-23T04:22:45;24.42;;;22.63;;
7985;SDS011;4038;42.612;23.066;2022-11-23T04:25:11;18.77;;;17.67;;
7985;SDS011;4038;42.612;23.066;2022-11-23T04:27:36;17.73;;;16.67;;
7985;SDS011;4038;42.612;23.066;2022-11-23T04:30:02;18.40;;;17.20;;
7985;SDS011;4038;42.612;23.066;2022-11-23T04:32:28;17.35;;;16.35;;
7985;SDS011;4038;42.612;23.066;2022-11-23T04:34:53;17.98;;;16.77;;
7985;SDS011;4038;42.612;23.066;2022-11-23T04:37:18;18.15;;;16.95;;
7985;SDS011;4038;42.612;23.066;2022-11-23T04:39:44;20.20;;;18.63;;
7985;SDS011;4038;42.612;23.066;2022-11-23T04:42:12;33.22;;;22.38;;
7985;SDS011;4038;42.612;23.066;2022-11-23T04:44:38;35.67;;;22.33;;
7985;SDS011;4038;42.612;23.066;2022-11-23T04:47:03;34.78;;;22.63;;
7985;SDS011;4038;42.612;23.066;2022-11-23T04:49:29;33.77;;;21.20;;
7985;SDS011;4038;42.612;23.066;2022-11-23T04:51:54;32.57;;;20.37;;
7985;SDS011;4038;42.612;23.066;2022-11-23T04:54:19;50.03;;;24.40;;
7985;SDS011;4038;42.612;23.066;2022-11-23T04:56:45;21.48;;;19.40;;
7985;SDS011;4038;42.612;23.066;2022-11-23T04:59:10;31.10;;;20.27;;
7985;SDS011;4038;42.612;23.066;2022-11-23T05:01:36;24.33;;;20.07;;
7985;SDS011;4038;42.612;23.066;2022-11-23T05:04:01;21.83;;;19.63;;
7985;SDS011;4038;42.612;23.066;2022-11-23T05:06:26;20.97;;;19.17;;
7985;SDS011;4038;42.612;23.066;2022-11-23T05:08:52;19.67;;;17.92;;
7985;SDS011;4038;42.612;23.066;2022-11-23T05:11:17;19.47;;;17.57;;
7985;SDS011;4038;42.612;23.066;2022-11-23T05:13:44;20.67;;;18.47;;
7985;SDS011;4038;42.612;23.066;2022-11-23T05:16:10;19.80;;;18.10;;
7985;SDS011;4038;42.612;23.066;2022-11-23T05:18:35;24.13;;;19.67;;
7985;SDS011;4038;42.612;23.066;2022-11-23T05:21:00;27.87;;;19.10;;
7985;SDS011;4038;42.612;23.066;2022-11-23T05:23:26;57.67;;;26.60;;
7985;SDS011;4038;42.612;23.066;2022-11-23T05:25:51;28.37;;;20.80;;
7985;SDS011;4038;42.612;23.066;2022-11-23T05:28:18;29.67;;;21.20;;
7985;SDS011;4038;42.612;23.066;2022-11-23T05:30:45;38.20;;;24.10;;
7985;SDS011;4038;42.612;23.066;2022-11-23T05:33:10;35.07;;;23.73;;
7985;SDS011;4038;42.612;23.066;2022-11-23T05:35:36;29.30;;;24.53;;
7985;SDS011;4038;42.612;23.066;2022-11-23T05:38:01;31.93;;;25.87;;
7985;SDS011;4038;42.612;23.066;2022-11-23T05:40:27;35.77;;;25.33;;
7985;SDS011;4038;42.612;23.066;2022-11-23T05:49:39;22.80;;;20.73;;
7985;SDS011;4038;42.612;23.066;2022-11-23T05:52:05;20.47;;;18.70;;
7985;SDS011;4038;42.612;23.066;2022-11-23T05:54:30;23.05;;;20.70;;
7985;SDS011;4038;42.612;23.066;2022-11-23T05:56:55;23.03;;;20.73;;
7985;SDS011;4038;42.612;23.066;2022-11-23T05:59:21;37.70;;;22.40;;
7985;SDS011;4038;42.612;23.066;2022-11-23T06:01:46;20.57;;;18.70;;
7985;SDS011;4038;42.612;23.066;2022-11-23T06:04:12;19.60;;;18.07;;
7985;SDS011;4038;42.612;23.066;2022-11-23T06:06:37;20.13;;;18.53;;
7985;SDS011;4038;42.612;23.066;2022-11-23T06:09:03;20.13;;;18.67;;
7985;SDS011;4038;42.612;23.066;2022-11-23T06:11:28;22.13;;;19.83;;
7985;SDS011;4038;42.612;23.066;2022-11-23T06:13:55;24.47;;;21.30;;
7985;SDS011;4038;42.612;23.066;2022-11-23T06:16:20;23.77;;;20.13;;
7985;SDS011;4038;42.612;23.066;2022-11-23T06:18:46;22.27;;;20.27;;
7985;SDS011;4038;42.612;23.066;2022-11-23T06:21:11;29.35;;;22.33;;
7985;SDS011;4038;42.612;23.066;2022-11-23T06:23:36;29.42;;;24.45;;
7985;SDS011;4038;42.612;23.066;2022-11-23T06:26:02;41.80;;;24.70;;
7985;SDS011;4038;42.612;23.066;2022-11-23T06:28:27;30.47;;;23.13;;
7985;SDS011;4038;42.612;23.066;2022-11-23T06:30:53;49.58;;;25.10;;
7985;SDS011;4038;42.612;23.066;2022-11-23T06:33:19;41.30;;;25.20;;
7985;SDS011;4038;42.612;23.066;2022-11-23T06:35:58;39.20;;;23.77;;
7985;SDS011;4038;42.612;23.066;2022-11-23T06:38:25;27.88;;;22.55;;
7985;SDS011;4038;42.612;23.066;2022-11-23T06:40:51;57.20;;;25.33;;
7985;SDS011;4038;42.612;23.066;2022-11-23T06:43:16;54.15;;;24.98;;
7985;SDS011;4038;42.612;23.066;2022-11-23T06:45:42;33.47;;;22.13;;
7985;SDS011;4038;42.612;23.066;2022-11-23T06:48:07;40.33;;;24.98;;
7985;SDS011;4038;42.612;23.066;2022-11-23T06:50:33;45.65;;;25.20;;
7985;SDS011;4038;42.612;23.066;2022-11-23T06:52:58;51.30;;;27.95;;
7985;SDS011;4038;42.612;23.066;2022-11-23T06:55:24;36.72;;;24.08;;
7985;SDS011;4038;42.612;23.066;2022-11-23T06:57:50;25.77;;;22.67;;
7985;SDS011;4038;42.612;23.066;2022-11-23T07:00:16;24.75;;;22.45;;
7985;SDS011;4038;42.612;23.066;2022-11-23T07:02:43;35.50;;;25.63;;
7985;SDS011;4038;42.612;23.066;2022-11-23T07:05:08;31.67;;;23.58;;
7985;SDS011;4038;42.612;23.066;2022-11-23T07:07:34;26.00;;;23.45;;
7985;SDS011;4038;42.612;23.066;2022-11-23T07:10:00;31.30;;;28.25;;
7985;SDS011;4038;42.612;23.066;2022-11-23T07:12:25;40.83;;;28.10;;
7985;SDS011;4038;42.612;23.066;2022-11-23T07:14:51;30.23;;;23.20;;
7985;SDS011;4038;42.612;23.066;2022-11-23T07:17:16;38.60;;;24.95;;
7985;SDS011;4038;42.612;23.066;2022-11-23T07:19:42;36.47;;;32.92;;
7985;SDS011;4038;42.612;23.066;2022-11-23T07:22:08;32.70;;;28.65;;
7985;SDS011;4038;42.612;23.066;2022-11-23T07:24:34;31.58;;;28.33;;
7985;SDS011;4038;42.612;23.066;2022-11-23T07:26:59;28.95;;;23.23;;
7985;SDS011;4038;42.612;23.066;2022-11-23T07:29:25;35.65;;;24.70;;
7985;SDS011;4038;42.612;23.066;2022-11-23T07:31:50;34.45;;;24.80;;
7985;SDS011;4038;42.612;23.066;2022-11-23T07:34:16;24.42;;;22.00;;
7985;SDS011;4038;42.612;23.066;2022-11-23T07:36:41;22.52;;;20.85;;
7985;SDS011;4038;42.612;23.066;2022-11-23T07:39:06;22.27;;;20.65;;
7985;SDS011;4038;42.612;23.066;2022-11-23T07:41:32;22.13;;;20.25;;
7985;SDS011;4038;42.612;23.066;2022-11-23T07:43:57;20.95;;;19.50;;
7985;SDS011;4038;42.612;23.066;2022-11-23T07:46:23;20.60;;;19.10;;
7985;SDS011;4038;42.612;23.066;2022-11-23T07:48:48;21.88;;;20.35;;
7985;SDS011;4038;42.612;23.066;2022-11-23T07:51:14;22.45;;;20.83;;
7985;SDS011;4038;42.612;23.066;2022-11-23T07:53:40;22.15;;;20.65;;
7985;SDS011;4038;42.612;23.066;2022-11-23T07:56:05;22.20;;;20.58;;
7985;SDS011;4038;42.612;23.066;2022-11-23T07:58:31;23.58;;;21.58;;
7985;SDS011;4038;42.612;23.066;2022-11-23T08:00:57;24.48;;;22.02;;
7985;SDS011;4038;42.612;23.066;2022-11-23T08:03:25;24.30;;;22.02;;
7985;SDS011;4038;42.612;23.066;2022-11-23T08:05:51;23.80;;;22.10;;
7985;SDS011;4038;42.612;23.066;2022-11-23T08:08:16;21.92;;;20.52;;
7985;SDS011;4038;42.612;23.066;2022-11-23T08:10:45;23.38;;;21.77;;
7985;SDS011;4038;42.612;23.066;2022-11-23T08:13:10;23.63;;;22.13;;
7985;SDS011;4038;42.612;23.066;2022-11-23T08:15:36;22.67;;;20.95;;
7985;SDS011;4038;42.612;23.066;2022-11-23T08:18:02;22.10;;;20.60;;
7985;SDS011;4038;42.612;23.066;2022-11-23T08:20:29;22.20;;;20.60;;
7985;SDS011;4038;42.612;23.066;2022-11-23T08:22:55;22.58;;;21.02;;
7985;SDS011;4038;42.612;23.066;2022-11-23T08:25:22;22.45;;;20.95;;
7985;SDS011;4038;42.612;23.066;2022-11-23T08:27:53;21.23;;;19.83;;
7985;SDS011;4038;42.612;23.066;2022-11-23T08:30:21;21.75;;;20.25;;
7985;SDS011;4038;42.612;23.066;2022-11-23T08:32:47;21.20;;;19.70;;
7985;SDS011;4038;42.612;23.066;2022-11-23T08:35:12;22.42;;;20.90;;
7985;SDS011;4038;42.612;23.066;2022-11-23T08:37:37;22.80;;;21.40;;
7985;SDS011;4038;42.612;23.066;2022-11-23T08:40:03;22.98;;;21.48;;
7985;SDS011;4038;42.612;23.066;2022-11-23T08:42:29;22.67;;;21.17;;
7985;SDS011;4038;42.612;23.066;2022-11-23T08:44:54;22.25;;;20.75;;
7985;SDS011;4038;42.612;23.066;2022-11-23T08:47:19;21.48;;;20.08;;
7985;SDS011;4038;42.612;23.066;2022-11-23T08:49:45;21.80;;;20.30;;
7985;SDS011;4038;42.612;23.066;2022-11-23T08:52:11;22.63;;;21.13;;
7985;SDS011;4038;42.612;23.066;2022-11-23T08:54:36;22.15;;;20.52;;
7985;SDS011;4038;42.612;23.066;2022-11-23T08:57:02;22.83;;;21.20;;
7985;SDS011;4038;42.612;23.066;2022-11-23T08:59:27;22.95;;;21.35;;
7985;SDS011;4038;42.612;23.066;2022-11-23T09:01:53;22.30;;;20.70;;
7985;SDS011;4038;42.612;23.066;2022-11-23T09:04:18;22.75;;;21.20;;
7985;SDS011;4038;42.612;23.066;2022-11-23T09:06:43;22.95;;;21.38;;
7985;SDS011;4038;42.612;23.066;2022-11-23T09:09:09;21.95;;;20.45;;
7985;SDS011;4038;42.612;23.066;2022-11-23T09:11:35;22.35;;;20.85;;
7985;SDS011;4038;42.612;23.066;2022-11-23T09:14:00;22.60;;;21.10;;
7985;SDS011;4038;42.612;23.066;2022-11-23T09:16:25;23.40;;;21.90;;
7985;SDS011;4038;42.612;23.066;2022-11-23T09:18:53;23.30;;;21.70;;
7985;SDS011;4038;42.612;23.066;2022-11-23T09:21:19;22.42;;;20.92;;
7985;SDS011;4038;42.612;23.066;2022-11-23T09:23:45;22.08;;;20.58;;
7985;SDS011;4038;42.612;23.066;2022-11-23T09:26:10;21.83;;;20.42;;
7985;SDS011;4038;42.612;23.066;2022-11-23T09:28:36;22.83;;;21.38;;
7985;SDS011;4038;42.612;23.066;2022-11-23T09:31:02;21.85;;;20.45;;
7985;SDS011;4038;42.612;23.066;2022-11-23T09:33:28;22.73;;;21.33;;
7985;SDS011;4038;42.612;23.066;2022-11-23T09:36:00;22.30;;;20.73;;
7985;SDS011;4038;42.612;23.066;2022-11-23T09:38:28;22.80;;;21.30;;
7985;SDS011;4038;42.612;23.066;2022-11-23T09:41:15;22.65;;;21.13;;
7985;SDS011;4038;42.612;23.066;2022-11-23T09:44:09;21.38;;;19.92;;
7985;SDS011;4038;42.612;23.066;2022-11-23T09:49:25;21.98;;;20.25;;
7985;SDS011;4038;42.612;23.066;2022-11-23T09:52:19;22.88;;;21.27;;
7985;SDS011;4038;42.612;23.066;2022-11-23T09:54:48;21.50;;;20.08;;
7985;SDS011;4038;42.612;23.066;2022-11-23T09:57:18;21.25;;;19.85;;
7985;SDS011;4038;42.612;23.066;2022-11-23T10:00:34;21.65;;;20.17;;
7985;SDS011;4038;42.612;23.066;2022-11-23T10:02:43;21.70;;;20.20;;
7985;SDS011;4038;42.612;23.066;2022-11-23T10:05:10;20.70;;;19.30;;
7985;SDS011;4038;42.612;23.066;2022-11-23T10:07:48;21.25;;;19.65;;
7985;SDS011;4038;42.612;23.066;2022-11-23T10:10:43;20.70;;;19.40;;
7985;SDS011;4038;42.612;23.066;2022-11-23T10:18:35;21.77;;;20.38;;
7985;SDS011;4038;42.612;23.066;2022-11-23T10:21:38;19.35;;;18.15;;
7985;SDS011;4038;42.612;23.066;2022-11-23T10:24:28;21.75;;;20.25;;
7985;SDS011;4038;42.612;23.066;2022-11-23T10:27:22;22.67;;;21.10;;
7985;SDS011;4038;42.612;23.066;2022-11-23T10:29:49;23.25;;;21.63;;
7985;SDS011;4038;42.612;23.066;2022-11-23T10:35:33;22.63;;;21.23;;
7985;SDS011;4038;42.612;23.066;2022-11-23T10:38:11;21.27;;;19.88;;
7985;SDS011;4038;42.612;23.066;2022-11-23T10:43:55;21.02;;;19.65;;
7985;SDS011;4038;42.612;23.066;2022-11-23T10:46:30;21.70;;;20.30;;
7985;SDS011;4038;42.612;23.066;2022-11-23T10:49:14;21.95;;;20.35;;
7985;SDS011;4038;42.612;23.066;2022-11-23T10:51:44;22.92;;;21.42;;
7985;SDS011;4038;42.612;23.066;2022-11-23T10:54:34;22.67;;;21.27;;
7985;SDS011;4038;42.612;23.066;2022-11-23T10:57:46;22.42;;;21.02;;
7985;SDS011;4038;42.612;23.066;2022-11-23T11:02:42;22.83;;;21.42;;
7985;SDS011;4038;42.612;23.066;2022-11-23T11:07:48;21.85;;;20.20;;
7985;SDS011;4038;42.612;23.066;2022-11-23T11:18:31;21.02;;;19.63;;
7985;SDS011;4038;42.612;23.066;2022-11-23T11:21:04;21.50;;;20.10;;
7985;SDS011;4038;42.612;23.066;2022-11-23T11:23:32;21.45;;;20.05;;
7985;SDS011;4038;42.612;23.066;2022-11-23T11:26:10;20.90;;;19.27;;
7985;SDS011;4038;42.612;23.066;2022-11-23T11:28:47;22.10;;;20.70;;
7985;SDS011;4038;42.612;23.066;2022-11-23T11:37:11;20.95;;;19.55;;
7985;SDS011;4038;42.612;23.066;2022-11-23T11:39:43;21.40;;;19.90;;
7985;SDS011;4038;42.612;23.066;2022-11-23T11:42:17;21.90;;;20.50;;
7985;SDS011;4038;42.612;23.066;2022-11-23T11:44:48;22.05;;;20.55;;
7985;SDS011;4038;42.612;23.066;2022-11-23T11:47:30;22.67;;;21.17;;
7985;SDS011;4038;42.612;23.066;2022-11-23T11:50:02;22.13;;;20.48;;
7985;SDS011;4038;42.612;23.066;2022-11-23T11:52:43;22.20;;;20.80;;
7985;SDS011;4038;42.612;23.066;2022-11-23T11:55:17;21.63;;;20.13;;
7985;SDS011;4038;42.612;23.066;2022-11-23T11:57:54;23.58;;;21.98;;
7985;SDS011;4038;42.612;23.066;2022-11-23T12:00:24;23.08;;;21.58;;
7985;SDS011;4038;42.612;23.066;2022-11-23T12:03:05;22.08;;;20.58;;
7985;SDS011;4038;42.612;23.066;2022-11-23T12:05:42;22.77;;;21.17;;
7985;SDS011;4038;42.612;23.066;2022-11-23T12:11:10;21.98;;;20.48;;
7985;SDS011;4038;42.612;23.066;2022-11-23T12:13:37;23.35;;;21.65;;
7985;SDS011;4038;42.612;23.066;2022-11-23T12:24:44;22.52;;;20.83;;
7985;SDS011;4038;42.612;23.066;2022-11-23T12:38:59;21.83;;;20.23;;
7985;SDS011;4038;42.612;23.066;2022-11-23T12:58:21;22.90;;;21.10;;
7985;SDS011;4038;42.612;23.066;2022-11-23T13:00:49;23.00;;;21.10;;
7985;SDS011;4038;42.612;23.066;2022-11-23T13:03:25;22.67;;;20.75;;
7985;SDS011;4038;42.612;23.066;2022-11-23T13:08:59;22.00;;;20.50;;
7985;SDS011;4038;42.612;23.066;2022-11-23T13:17:09;22.00;;;20.50;;
7985;SDS011;4038;42.612;23.066;2022-11-23T13:22:28;23.15;;;21.55;;
7985;SDS011;4038;42.612;23.066;2022-11-23T13:25:00;21.98;;;20.40;;
7985;SDS011;4038;42.612;23.066;2022-11-23T13:30:28;22.80;;;21.33;;
7985;SDS011;4038;42.612;23.066;2022-11-23T13:40:22;21.77;;;20.27;;
7985;SDS011;4038;42.612;23.066;2022-11-23T13:42:56;21.42;;;19.83;;
7985;SDS011;4038;42.612;23.066;2022-11-23T13:45:31;21.33;;;19.85;;
7985;SDS011;4038;42.612;23.066;2022-11-23T13:48:11;22.10;;;20.70;;
7985;SDS011;4038;42.612;23.066;2022-11-23T13:53:21;21.98;;;20.55;;
7985;SDS011;4038;42.612;23.066;2022-11-23T13:55:50;20.50;;;19.20;;
7985;SDS011;4038;42.612;23.066;2022-11-23T14:00:53;20.65;;;19.27;;
7985;SDS011;4038;42.612;23.066;2022-11-23T14:08:40;21.45;;;19.88;;
7985;SDS011;4038;42.612;23.066;2022-11-23T14:11:11;21.85;;;20.30;;
7985;SDS011;4038;42.612;23.066;2022-11-23T14:13:44;21.48;;;20.08;;
7985;SDS011;4038;42.612;23.066;2022-11-23T14:16:17;21.75;;;20.27;;
7985;SDS011;4038;42.612;23.066;2022-11-23T14:21:55;20.70;;;19.30;;
7985;SDS011;4038;42.612;23.066;2022-11-23T14:24:31;20.88;;;19.45;;
7985;SDS011;4038;42.612;23.066;2022-11-23T14:35:32;20.50;;;19.10;;
7985;SDS011;4038;42.612;23.066;2022-11-23T14:40:53;21.40;;;20.05;;
7985;SDS011;4038;42.612;23.066;2022-11-23T14:43:28;20.83;;;19.33;;
7985;SDS011;4038;42.612;23.066;2022-11-23T14:45:59;22.02;;;20.42;;
7985;SDS011;4038;42.612;23.066;2022-11-23T14:48:27;21.48;;;19.98;;
7985;SDS011;4038;42.612;23.066;2022-11-23T14:50:55;21.63;;;20.02;;
7985;SDS011;4038;42.612;23.066;2022-11-23T14:53:31;21.27;;;19.88;;
7985;SDS011;4038;42.612;23.066;2022-11-23T14:55:59;20.08;;;18.77;;
7985;SDS011;4038;42.612;23.066;2022-11-23T14:58:25;21.00;;;19.27;;
7985;SDS011;4038;42.612;23.066;2022-11-23T15:00:57;20.90;;;19.50;;
7985;SDS011;4038;42.612;23.066;2022-11-23T15:03:27;21.15;;;19.65;;
7985;SDS011;4038;42.612;23.066;2022-11-23T15:06:02;21.40;;;19.90;;
7985;SDS011;4038;42.612;23.066;2022-11-23T15:08:42;21.10;;;19.67;;
7985;SDS011;4038;42.612;23.066;2022-11-23T15:11:16;21.20;;;19.80;;
7985;SDS011;4038;42.612;23.066;2022-11-23T15:13:50;22.40;;;20.90;;
7985;SDS011;4038;42.612;23.066;2022-11-23T15:16:17;22.35;;;20.85;;
7985;SDS011;4038;42.612;23.066;2022-11-23T15:18:44;22.58;;;20.98;;
7985;SDS011;4038;42.612;23.066;2022-11-23T15:26:22;20.80;;;19.40;;
7985;SDS011;4038;42.612;23.066;2022-11-23T15:28:49;21.90;;;20.50;;
7985;SDS011;4038;42.612;23.066;2022-11-23T15:31:16;20.92;;;19.52;;
7985;SDS011;4038;42.612;23.066;2022-11-23T15:34:17;20.25;;;19.05;;
7985;SDS011;4038;42.612;23.066;2022-11-23T15:36:42;21.15;;;19.77;;
7985;SDS011;4038;42.612;23.066;2022-11-23T15:39:18;21.70;;;20.30;;
7985;SDS011;4038;42.612;23.066;2022-11-23T15:41:46;21.83;;;20.23;;
7985;SDS011;4038;42.612;23.066;2022-11-23T15:46:45;21.55;;;20.15;;
7985;SDS011;4038;42.612;23.066;2022-11-23T15:49:13;21.27;;;19.88;;
7985;SDS011;4038;42.612;23.066;2022-11-23T15:51:40;21.35;;;19.95;;
7985;SDS011;4038;42.612;23.066;2022-11-23T15:56:50;22.33;;;20.73;;
7985;SDS011;4038;42.612;23.066;2022-11-23T15:59:32;21.48;;;19.95;;
7985;SDS011;4038;42.612;23.066;2022-11-23T16:02:23;21.27;;;19.88;;
7985;SDS011;4038;42.612;23.066;2022-11-23T16:08:00;20.88;;;19.48;;
7985;SDS011;4038;42.612;23.066;2022-11-23T16:12:56;20.80;;;19.50;;
7985;SDS011;4038;42.612;23.066;2022-11-23T16:18:01;21.20;;;19.80;;
7985;SDS011;4038;42.612;23.066;2022-11-23T16:20:26;21.75;;;20.45;;
7985;SDS011;4038;42.612;23.066;2022-11-23T16:22:53;21.80;;;20.20;;
7985;SDS011;4038;42.612;23.066;2022-11-23T16:27:57;21.08;;;19.48;;
7985;SDS011;4038;42.612;23.066;2022-11-23T16:30:24;22.48;;;20.88;;
7985;SDS011;4038;42.612;23.066;2022-11-23T16:32:51;25.85;;;23.70;;
7985;SDS011;4038;42.612;23.066;2022-11-23T16:35:19;21.63;;;20.23;;
7985;SDS011;4038;42.612;23.066;2022-11-23T16:37:45;22.73;;;21.13;;
7985;SDS011;4038;42.612;23.066;2022-11-23T16:40:11;21.98;;;20.38;;
7985;SDS011;4038;42.612;23.066;2022-11-23T16:42:38;22.17;;;20.45;;
7985;SDS011;4038;42.612;23.066;2022-11-23T16:45:03;20.15;;;18.75;;
7985;SDS011;4038;42.612;23.066;2022-11-23T16:47:30;20.30;;;18.70;;
7985;SDS011;4038;42.612;23.066;2022-11-23T16:49:56;20.48;;;19.17;;
7985;SDS011;4038;42.612;23.066;2022-11-23T16:52:21;20.75;;;19.05;;
7985;SDS011;4038;42.612;23.066;2022-11-23T16:54:48;21.70;;;20.00;;
7985;SDS011;4038;42.612;23.066;2022-11-23T16:57:17;20.80;;;19.40;;
7985;SDS011;4038;42.612;23.066;2022-11-23T16:59:50;22.05;;;20.45;;
7985;SDS011;4038;42.612;23.066;2022-11-23T17:02:15;21.83;;;20.10;;
7985;SDS011;4038;42.612;23.066;2022-11-23T17:04:41;21.98;;;20.30;;
7985;SDS011;4038;42.612;23.066;2022-11-23T17:07:07;21.25;;;19.85;;
7985;SDS011;4038;42.612;23.066;2022-11-23T17:09:32;21.08;;;19.67;;
7985;SDS011;4038;42.612;23.066;2022-11-23T17:11:58;21.73;;;20.23;;
7985;SDS011;4038;42.612;23.066;2022-11-23T17:14:23;21.33;;;19.73;;
7985;SDS011;4038;42.612;23.066;2022-11-23T17:16:50;23.27;;;21.63;;
7985;SDS011;4038;42.612;23.066;2022-11-23T17:19:18;23.13;;;21.52;;